首页
METAR-TAF:

METAR-TAF

机场 :

马赛普罗旺斯机场

马赛, 法国

纬度: 43-27N, 经度: 005-14E, 海拔: 6米

当前天气观测

该预报发布于38分钟前的17:30 UTC
风速8节,风向南转西南
温度 32°C
湿度 43%
气压 1017 hPa
能见度10公里或以上
1500米以下无云,无积雨云

METAR: LFML 231730Z AUTO 21008KT CAVOK 32/18 Q1017 NOSIG

时间: 20:08 (18:08 UTC)

预报

该预报发布于4小时和8分钟前的14:00 UTC
预报有效从23日的 15点(UTC)到 24日的 21点(UTC)
风速3节,风向多变
能见度10公里或以上
1500米以下无云,无积雨云
短暂存在
从 23日的 15点(UTC)到 23日的 18点(UTC)
风速10节,风向西转西南

TAF: LFML 231400Z 2315/2421 VRB03KT CAVOK TX35/2412Z TN23/2403Z TEMPO 2315/2318 25010KT

超过4000个机场的气象观测和天气预报(METAR&TAF报告)。

可查询的气象台以黄色和红色小点在地图上表示。

将鼠标移到小点上方,可查看气象台名称。

然后点击查看天气观测和预报。

如需切换地图:点击带黑十字的绿色按钮放大地图;点击带横线的绿色按钮缩小地图;或者点击绿色箭头查看邻近地区的地图。


METAR-TAF: